This is the latest recevied weather packets stored in our database for station/object HS3UAA-1. If no packets are shown the sender has not sent any weather packets the latest 10 day(s).
| Time | Temp. | Humidity | Pressure | Rain* | Wind** | Luminosity | Snow |
|---|---|---|---|---|---|---|---|
| 1777929704 | 31.67° C | 50% | 996 hPa | - | - | 0 W/m² | - |
| 1777929382 | 31.67° C | 50% | 996 hPa | - | - | 0 W/m² | - |
| 1777929060 | 31.67° C | 50% | 997 hPa | - | - | 0 W/m² | - |
| 1777928566 | 31.67° C | 50% | 997 hPa | - | - | 0 W/m² | - |
| 1777928244 | 32.78° C | 47% | 997 hPa | - | - | 0 W/m² | - |
| 1777927922 | 32.22° C | 49% | 997 hPa | - | - | 0 W/m² | - |
| 1777927600 | 31.67° C | 50% | 996 hPa | - | - | 0 W/m² | - |
| 1777927278 | 31.67° C | 50% | 996 hPa | - | - | 0 W/m² | - |
| 1777926923 | 32.78° C | 48% | 996 hPa | - | - | 0 W/m² | - |
| 1777926601 | 32.22° C | 49% | 996 hPa | - | - | 0 W/m² | - |
| 1777926279 | 32.22° C | 49% | 996 hPa | - | - | 0 W/m² | - |
| 1777925957 | 31.67° C | 50% | 996 hPa | - | - | 0 W/m² | - |
| 1777925635 | 32.22° C | 49% | 996 hPa | - | - | 0 W/m² | - |
| 1777925313 | 32.78° C | 48% | 996 hPa | - | - | 0 W/m² | - |
| 1777924991 | 32.22° C | 49% | 996 hPa | - | - | 0 W/m² | - |
| 1777924669 | 31.67° C | 50% | 996 hPa | - | - | 0 W/m² | - |
| 1777924346 | 31.67° C | 50% | 996 hPa | - | - | 0 W/m² | - |
| 1777924024 | 32.22° C | 49% | 996 hPa | - | - | 0 W/m² | - |
| 1777923702 | 32.78° C | 48% | 997 hPa | - | - | 0 W/m² | - |
| 1777923380 | 32.22° C | 50% | 997 hPa | - | - | 0 W/m² | - |
| 1777923058 | 32.22° C | 49% | 997 hPa | - | - | 0 W/m² | - |
| 1777922736 | 32.22° C | 49% | 997 hPa | - | - | 0 W/m² | - |
| 1777922414 | 32.22° C | 49% | 997 hPa | - | - | 0 W/m² | - |
| 1777922092 | 32.22° C | 49% | 997 hPa | - | - | 0 W/m² | - |
| 1777921625 | 31.67° C | 50% | 997 hPa | - | - | 0 W/m² | - |
* Rain since midnight (hover to see other rain measurements)
** Current wind speed in m/s (hover to see current wind gust speed)